KCNU/CNU METAR and TAF weather

Enter ICAO airport designator
Station Type Date Time Source
KCNU METAR 2018/12/10 19:52 UTC NOAA

KCNU 101952Z AUTO 21005KT 10SM CLR 07/M04 A3030 RMK AO2 SLP269 T00671039


Station Type Date Time Source
KCNU Decoded METAR 2018/12/10 19:52 UTC NOAA

CHANUTE JOHNSON AIRPORT, KS, United States (KCNU) 37-40N 95-29W 297M
Dec 10, 2018 - 02:52 PM EST / 2018.12.10 1952 UTC
Wind: from the SSW (210 degrees) at 6 MPH (5 KT):0
Visibility: 10 mile(s):0
Sky conditions: clear
Temperature: 44.1 F (6.7 C)
Dew Point: 25.0 F (-3.9 C)
Relative Humidity: 46%
Pressure (altimeter): 30.3 in. Hg (1026 hPa)
ob: KCNU 101952Z AUTO 21005KT 10SM CLR 07/M04 A3030 RMK AO2 SLP269 T00671039
cycle: 20

Station Type Date Time Source
KCNU TAF 2018/12/10 18:22 UTC NOAA

TAF KCNU 101720Z 1018/1118 VRB04KT P6SM SKC
FM110800 20007KT P6SM SKC
FM111700 19015G22KT P6SM FEW250


Example: see airport list